sensor_id;sensor_type;location;lat;lon;timestamp;P1;durP1;ratioP1;P2;durP2;ratioP2
83682;SDS011;73663;51.298;5.802;2023-12-04T00:00:29;25.40;;;9.25;;
83682;SDS011;73663;51.298;5.802;2023-12-04T00:05:30;26.42;;;9.80;;
83682;SDS011;73663;51.298;5.802;2023-12-04T00:10:31;28.02;;;10.48;;
83682;SDS011;73663;51.298;5.802;2023-12-04T00:15:31;25.98;;;10.57;;
83682;SDS011;73663;51.298;5.802;2023-12-04T00:20:32;23.98;;;9.30;;
83682;SDS011;73663;51.298;5.802;2023-12-04T00:25:32;26.00;;;9.65;;
83682;SDS011;73663;51.298;5.802;2023-12-04T00:30:33;21.75;;;8.35;;
83682;SDS011;73663;51.298;5.802;2023-12-04T00:35:33;24.23;;;9.20;;
83682;SDS011;73663;51.298;5.802;2023-12-04T00:40:34;18.13;;;7.20;;
83682;SDS011;73663;51.298;5.802;2023-12-04T00:45:34;21.35;;;8.88;;
83682;SDS011;73663;51.298;5.802;2023-12-04T00:50:35;21.77;;;8.27;;
83682;SDS011;73663;51.298;5.802;2023-12-04T00:55:35;21.92;;;8.77;;
83682;SDS011;73663;51.298;5.802;2023-12-04T01:00:36;20.88;;;8.82;;
83682;SDS011;73663;51.298;5.802;2023-12-04T01:05:36;21.25;;;8.07;;
83682;SDS011;73663;51.298;5.802;2023-12-04T01:10:38;20.90;;;7.32;;
83682;SDS011;73663;51.298;5.802;2023-12-04T01:15:39;23.15;;;8.45;;
83682;SDS011;73663;51.298;5.802;2023-12-04T01:20:39;21.33;;;8.15;;
83682;SDS011;73663;51.298;5.802;2023-12-04T01:25:40;18.65;;;6.95;;
83682;SDS011;73663;51.298;5.802;2023-12-04T01:30:41;17.52;;;7.53;;
83682;SDS011;73663;51.298;5.802;2023-12-04T01:35:42;21.70;;;7.20;;
83682;SDS011;73663;51.298;5.802;2023-12-04T01:40:42;17.00;;;6.97;;
83682;SDS011;73663;51.298;5.802;2023-12-04T01:45:43;19.15;;;6.90;;
83682;SDS011;73663;51.298;5.802;2023-12-04T01:50:43;20.58;;;6.82;;
83682;SDS011;73663;51.298;5.802;2023-12-04T01:55:44;18.55;;;8.13;;
83682;SDS011;73663;51.298;5.802;2023-12-04T02:00:46;17.17;;;6.55;;
83682;SDS011;73663;51.298;5.802;2023-12-04T02:05:47;16.27;;;7.20;;
83682;SDS011;73663;51.298;5.802;2023-12-04T02:10:48;19.85;;;6.57;;
83682;SDS011;73663;51.298;5.802;2023-12-04T02:15:49;22.65;;;8.13;;
83682;SDS011;73663;51.298;5.802;2023-12-04T02:20:53;15.82;;;7.90;;
83682;SDS011;73663;51.298;5.802;2023-12-04T02:26:05;14.07;;;6.75;;
83682;SDS011;73663;51.298;5.802;2023-12-04T02:36:11;15.60;;;6.55;;
83682;SDS011;73663;51.298;5.802;2023-12-04T02:41:13;18.27;;;7.22;;
83682;SDS011;73663;51.298;5.802;2023-12-04T02:46:14;17.00;;;6.78;;
83682;SDS011;73663;51.298;5.802;2023-12-04T02:51:15;18.02;;;6.80;;
83682;SDS011;73663;51.298;5.802;2023-12-04T02:56:15;19.90;;;6.97;;
83682;SDS011;73663;51.298;5.802;2023-12-04T03:01:16;16.92;;;6.57;;
83682;SDS011;73663;51.298;5.802;2023-12-04T03:06:16;14.10;;;7.00;;
83682;SDS011;73663;51.298;5.802;2023-12-04T03:11:17;18.42;;;7.95;;
83682;SDS011;73663;51.298;5.802;2023-12-04T03:16:18;13.85;;;5.90;;
83682;SDS011;73663;51.298;5.802;2023-12-04T03:21:18;13.80;;;5.22;;
83682;SDS011;73663;51.298;5.802;2023-12-04T03:26:25;13.38;;;7.25;;
83682;SDS011;73663;51.298;5.802;2023-12-04T03:31:26;18.75;;;7.28;;
83682;SDS011;73663;51.298;5.802;2023-12-04T03:36:28;16.10;;;7.00;;
83682;SDS011;73663;51.298;5.802;2023-12-04T03:41:28;17.90;;;7.57;;
83682;SDS011;73663;51.298;5.802;2023-12-04T03:46:29;15.15;;;8.10;;
83682;SDS011;73663;51.298;5.802;2023-12-04T03:51:29;15.98;;;7.78;;
83682;SDS011;73663;51.298;5.802;2023-12-04T03:56:30;15.27;;;6.32;;
83682;SDS011;73663;51.298;5.802;2023-12-04T04:01:30;14.65;;;6.00;;
83682;SDS011;73663;51.298;5.802;2023-12-04T04:06:32;12.98;;;6.20;;
83682;SDS011;73663;51.298;5.802;2023-12-04T04:11:32;17.63;;;7.28;;
83682;SDS011;73663;51.298;5.802;2023-12-04T04:16:33;12.93;;;5.82;;
83682;SDS011;73663;51.298;5.802;2023-12-04T04:21:33;14.88;;;7.50;;
83682;SDS011;73663;51.298;5.802;2023-12-04T04:26:34;12.75;;;5.43;;
83682;SDS011;73663;51.298;5.802;2023-12-04T04:31:34;14.63;;;6.65;;
83682;SDS011;73663;51.298;5.802;2023-12-04T04:36:35;12.07;;;5.65;;
83682;SDS011;73663;51.298;5.802;2023-12-04T04:41:36;13.18;;;5.82;;
83682;SDS011;73663;51.298;5.802;2023-12-04T04:46:36;10.43;;;5.40;;
83682;SDS011;73663;51.298;5.802;2023-12-04T04:51:37;11.77;;;5.72;;
83682;SDS011;73663;51.298;5.802;2023-12-04T04:56:37;12.27;;;6.03;;
83682;SDS011;73663;51.298;5.802;2023-12-04T05:01:38;12.65;;;5.28;;
83682;SDS011;73663;51.298;5.802;2023-12-04T05:06:38;12.07;;;5.03;;
83682;SDS011;73663;51.298;5.802;2023-12-04T05:11:39;11.75;;;5.35;;
83682;SDS011;73663;51.298;5.802;2023-12-04T05:16:39;11.43;;;5.13;;
83682;SDS011;73663;51.298;5.802;2023-12-04T05:21:46;12.13;;;5.50;;
83682;SDS011;73663;51.298;5.802;2023-12-04T05:26:47;11.18;;;5.97;;
83682;SDS011;73663;51.298;5.802;2023-12-04T05:31:47;12.55;;;5.97;;
83682;SDS011;73663;51.298;5.802;2023-12-04T05:36:48;10.13;;;5.10;;
83682;SDS011;73663;51.298;5.802;2023-12-04T05:41:48;11.85;;;5.22;;
83682;SDS011;73663;51.298;5.802;2023-12-04T05:46:49;11.60;;;5.03;;
83682;SDS011;73663;51.298;5.802;2023-12-04T05:51:56;9.50;;;5.13;;
83682;SDS011;73663;51.298;5.802;2023-12-04T05:56:57;10.65;;;5.13;;
83682;SDS011;73663;51.298;5.802;2023-12-04T06:01:58;10.45;;;4.95;;
83682;SDS011;73663;51.298;5.802;2023-12-04T06:06:59;11.23;;;4.95;;
83682;SDS011;73663;51.298;5.802;2023-12-04T06:12:00;10.32;;;5.28;;
83682;SDS011;73663;51.298;5.802;2023-12-04T06:17:07;10.77;;;5.43;;
83682;SDS011;73663;51.298;5.802;2023-12-04T06:22:08;10.80;;;5.78;;
83682;SDS011;73663;51.298;5.802;2023-12-04T06:27:16;9.48;;;4.53;;
83682;SDS011;73663;51.298;5.802;2023-12-04T06:32:21;10.13;;;4.57;;
83682;SDS011;73663;51.298;5.802;2023-12-04T06:37:21;8.73;;;4.15;;
83682;SDS011;73663;51.298;5.802;2023-12-04T06:42:22;8.27;;;4.07;;
83682;SDS011;73663;51.298;5.802;2023-12-04T06:47:23;7.68;;;3.78;;
83682;SDS011;73663;51.298;5.802;2023-12-04T06:52:24;7.65;;;4.10;;
83682;SDS011;73663;51.298;5.802;2023-12-04T06:57:25;9.50;;;3.40;;
83682;SDS011;73663;51.298;5.802;2023-12-04T07:02:25;9.02;;;4.18;;
83682;SDS011;73663;51.298;5.802;2023-12-04T07:07:26;12.95;;;4.68;;
83682;SDS011;73663;51.298;5.802;2023-12-04T07:12:26;10.32;;;4.43;;
83682;SDS011;73663;51.298;5.802;2023-12-04T07:17:27;9.32;;;4.10;;
83682;SDS011;73663;51.298;5.802;2023-12-04T07:22:27;11.63;;;4.25;;
83682;SDS011;73663;51.298;5.802;2023-12-04T07:27:28;7.47;;;3.47;;
83682;SDS011;73663;51.298;5.802;2023-12-04T07:32:29;6.93;;;3.47;;
83682;SDS011;73663;51.298;5.802;2023-12-04T07:37:29;7.10;;;4.00;;
83682;SDS011;73663;51.298;5.802;2023-12-04T07:42:31;8.82;;;3.88;;
83682;SDS011;73663;51.298;5.802;2023-12-04T07:47:31;9.15;;;3.80;;
83682;SDS011;73663;51.298;5.802;2023-12-04T07:52:32;7.07;;;3.85;;
83682;SDS011;73663;51.298;5.802;2023-12-04T07:57:32;7.65;;;3.83;;
83682;SDS011;73663;51.298;5.802;2023-12-04T08:02:33;8.45;;;3.88;;
83682;SDS011;73663;51.298;5.802;2023-12-04T08:07:34;8.55;;;4.25;;
83682;SDS011;73663;51.298;5.802;2023-12-04T08:12:34;8.93;;;4.93;;
83682;SDS011;73663;51.298;5.802;2023-12-04T08:17:35;6.13;;;4.00;;
83682;SDS011;73663;51.298;5.802;2023-12-04T08:22:36;8.68;;;4.40;;
83682;SDS011;73663;51.298;5.802;2023-12-04T08:27:36;9.82;;;4.13;;
83682;SDS011;73663;51.298;5.802;2023-12-04T08:32:37;7.05;;;4.20;;
83682;SDS011;73663;51.298;5.802;2023-12-04T08:37:37;8.02;;;3.90;;
83682;SDS011;73663;51.298;5.802;2023-12-04T08:42:38;9.27;;;5.05;;
83682;SDS011;73663;51.298;5.802;2023-12-04T08:47:39;10.75;;;4.97;;
83682;SDS011;73663;51.298;5.802;2023-12-04T08:52:39;10.95;;;5.30;;
83682;SDS011;73663;51.298;5.802;2023-12-04T08:57:41;10.73;;;5.30;;
83682;SDS011;73663;51.298;5.802;2023-12-04T09:02:42;10.32;;;5.43;;
83682;SDS011;73663;51.298;5.802;2023-12-04T09:07:42;9.98;;;4.50;;
83682;SDS011;73663;51.298;5.802;2023-12-04T09:12:43;8.90;;;5.00;;
83682;SDS011;73663;51.298;5.802;2023-12-04T09:17:43;9.73;;;4.88;;
83682;SDS011;73663;51.298;5.802;2023-12-04T09:22:44;11.80;;;5.28;;
83682;SDS011;73663;51.298;5.802;2023-12-04T09:27:51;13.88;;;6.05;;
83682;SDS011;73663;51.298;5.802;2023-12-04T09:32:58;12.00;;;6.13;;
83682;SDS011;73663;51.298;5.802;2023-12-04T09:37:59;11.15;;;5.68;;
83682;SDS011;73663;51.298;5.802;2023-12-04T09:42:59;10.25;;;5.15;;
83682;SDS011;73663;51.298;5.802;2023-12-04T09:48:00;11.00;;;5.50;;
83682;SDS011;73663;51.298;5.802;2023-12-04T09:53:01;13.15;;;5.97;;
83682;SDS011;73663;51.298;5.802;2023-12-04T09:58:02;12.30;;;6.03;;
83682;SDS011;73663;51.298;5.802;2023-12-04T10:03:04;11.85;;;5.57;;
83682;SDS011;73663;51.298;5.802;2023-12-04T10:08:05;10.98;;;5.18;;
83682;SDS011;73663;51.298;5.802;2023-12-04T10:13:05;11.18;;;6.07;;
83682;SDS011;73663;51.298;5.802;2023-12-04T10:18:06;12.25;;;5.90;;
83682;SDS011;73663;51.298;5.802;2023-12-04T10:23:39;11.60;;;6.53;;
83682;SDS011;73663;51.298;5.802;2023-12-04T10:28:44;10.35;;;5.22;;
83682;SDS011;73663;51.298;5.802;2023-12-04T10:34:00;11.45;;;5.30;;
83682;SDS011;73663;51.298;5.802;2023-12-04T10:39:02;13.02;;;5.60;;
83682;SDS011;73663;51.298;5.802;2023-12-04T10:44:05;11.68;;;5.97;;
83682;SDS011;73663;51.298;5.802;2023-12-04T10:49:06;9.75;;;5.07;;
83682;SDS011;73663;51.298;5.802;2023-12-04T10:54:09;11.45;;;5.55;;
83682;SDS011;73663;51.298;5.802;2023-12-04T10:59:14;9.27;;;4.38;;
83682;SDS011;73663;51.298;5.802;2023-12-04T11:04:19;12.77;;;5.30;;
83682;SDS011;73663;51.298;5.802;2023-12-04T11:09:23;9.77;;;5.07;;
83682;SDS011;73663;51.298;5.802;2023-12-04T11:14:28;10.20;;;5.15;;
83682;SDS011;73663;51.298;5.802;2023-12-04T11:19:39;12.30;;;5.60;;
83682;SDS011;73663;51.298;5.802;2023-12-04T11:24:43;9.65;;;4.90;;
83682;SDS011;73663;51.298;5.802;2023-12-04T11:29:44;9.05;;;4.82;;
83682;SDS011;73663;51.298;5.802;2023-12-04T11:34:49;10.60;;;5.03;;
83682;SDS011;73663;51.298;5.802;2023-12-04T11:39:52;11.35;;;5.22;;
83682;SDS011;73663;51.298;5.802;2023-12-04T11:44:59;10.35;;;5.25;;
83682;SDS011;73663;51.298;5.802;2023-12-04T11:50:00;12.23;;;5.53;;
83682;SDS011;73663;51.298;5.802;2023-12-04T11:55:02;12.07;;;5.57;;
83682;SDS011;73663;51.298;5.802;2023-12-04T12:05:21;14.48;;;7.28;;
83682;SDS011;73663;51.298;5.802;2023-12-04T12:10:22;13.30;;;6.28;;
83682;SDS011;73663;51.298;5.802;2023-12-04T12:15:22;10.02;;;5.93;;
83682;SDS011;73663;51.298;5.802;2023-12-04T12:20:23;10.77;;;5.07;;
83682;SDS011;73663;51.298;5.802;2023-12-04T12:25:24;10.88;;;5.25;;
83682;SDS011;73663;51.298;5.802;2023-12-04T12:30:26;8.77;;;5.10;;
83682;SDS011;73663;51.298;5.802;2023-12-04T12:35:26;12.45;;;5.07;;
83682;SDS011;73663;51.298;5.802;2023-12-04T12:40:27;10.80;;;5.22;;
83682;SDS011;73663;51.298;5.802;2023-12-04T12:45:29;10.02;;;5.05;;
83682;SDS011;73663;51.298;5.802;2023-12-04T12:50:38;9.13;;;5.18;;
83682;SDS011;73663;51.298;5.802;2023-12-04T12:55:40;11.75;;;5.65;;
83682;SDS011;73663;51.298;5.802;2023-12-04T13:00:42;9.00;;;5.20;;
83682;SDS011;73663;51.298;5.802;2023-12-04T13:05:49;11.10;;;5.40;;
83682;SDS011;73663;51.298;5.802;2023-12-04T13:10:50;9.38;;;4.88;;
83682;SDS011;73663;51.298;5.802;2023-12-04T13:15:50;9.32;;;4.63;;
83682;SDS011;73663;51.298;5.802;2023-12-04T13:20:51;12.98;;;5.93;;
83682;SDS011;73663;51.298;5.802;2023-12-04T13:25:52;11.68;;;5.70;;
83682;SDS011;73663;51.298;5.802;2023-12-04T13:30:54;11.80;;;5.50;;
83682;SDS011;73663;51.298;5.802;2023-12-04T13:35:55;12.95;;;6.57;;
83682;SDS011;73663;51.298;5.802;2023-12-04T13:40:56;10.98;;;5.90;;
83682;SDS011;73663;51.298;5.802;2023-12-04T13:45:59;12.50;;;5.85;;
83682;SDS011;73663;51.298;5.802;2023-12-04T13:51:00;9.93;;;4.80;;
83682;SDS011;73663;51.298;5.802;2023-12-04T13:56:00;10.35;;;5.93;;
83682;SDS011;73663;51.298;5.802;2023-12-04T14:01:01;10.90;;;5.78;;
83682;SDS011;73663;51.298;5.802;2023-12-04T14:06:12;13.02;;;6.00;;
83682;SDS011;73663;51.298;5.802;2023-12-04T14:11:12;11.85;;;6.38;;
83682;SDS011;73663;51.298;5.802;2023-12-04T14:16:14;12.68;;;6.07;;
83682;SDS011;73663;51.298;5.802;2023-12-04T14:21:16;11.27;;;6.07;;
83682;SDS011;73663;51.298;5.802;2023-12-04T14:26:17;11.05;;;5.85;;
83682;SDS011;73663;51.298;5.802;2023-12-04T14:31:17;12.85;;;6.40;;
83682;SDS011;73663;51.298;5.802;2023-12-04T14:36:18;12.43;;;6.63;;
83682;SDS011;73663;51.298;5.802;2023-12-04T14:41:18;12.15;;;6.75;;
83682;SDS011;73663;51.298;5.802;2023-12-04T14:46:19;16.20;;;7.03;;
83682;SDS011;73663;51.298;5.802;2023-12-04T14:51:20;14.70;;;6.78;;
83682;SDS011;73663;51.298;5.802;2023-12-04T14:56:20;20.13;;;8.07;;
83682;SDS011;73663;51.298;5.802;2023-12-04T15:01:36;14.88;;;6.50;;
83682;SDS011;73663;51.298;5.802;2023-12-04T15:06:55;15.45;;;6.72;;
83682;SDS011;73663;51.298;5.802;2023-12-04T15:11:58;14.32;;;6.63;;
83682;SDS011;73663;51.298;5.802;2023-12-04T15:17:18;16.65;;;7.63;;
83682;SDS011;73663;51.298;5.802;2023-12-04T15:22:34;13.68;;;7.50;;
83682;SDS011;73663;51.298;5.802;2023-12-04T15:27:35;15.27;;;7.88;;
83682;SDS011;73663;51.298;5.802;2023-12-04T15:32:36;15.80;;;6.78;;
83682;SDS011;73663;51.298;5.802;2023-12-04T15:37:36;14.68;;;7.18;;
83682;SDS011;73663;51.298;5.802;2023-12-04T15:42:37;20.63;;;9.35;;
83682;SDS011;73663;51.298;5.802;2023-12-04T15:47:37;19.55;;;7.82;;
83682;SDS011;73663;51.298;5.802;2023-12-04T15:52:38;18.73;;;8.13;;
83682;SDS011;73663;51.298;5.802;2023-12-04T15:57:41;15.20;;;7.72;;
83682;SDS011;73663;51.298;5.802;2023-12-04T16:02:41;16.45;;;7.70;;
83682;SDS011;73663;51.298;5.802;2023-12-04T16:07:42;16.58;;;7.38;;
83682;SDS011;73663;51.298;5.802;2023-12-04T16:12:43;15.75;;;7.93;;
83682;SDS011;73663;51.298;5.802;2023-12-04T16:17:43;18.15;;;8.18;;
83682;SDS011;73663;51.298;5.802;2023-12-04T16:22:44;15.55;;;7.43;;
83682;SDS011;73663;51.298;5.802;2023-12-04T16:27:44;18.40;;;8.25;;
83682;SDS011;73663;51.298;5.802;2023-12-04T16:32:45;17.17;;;7.55;;
83682;SDS011;73663;51.298;5.802;2023-12-04T16:37:46;16.58;;;8.40;;
83682;SDS011;73663;51.298;5.802;2023-12-04T16:42:46;43.72;;;15.25;;
83682;SDS011;73663;51.298;5.802;2023-12-04T16:47:47;16.77;;;7.80;;
83682;SDS011;73663;51.298;5.802;2023-12-04T16:52:47;19.13;;;7.53;;
83682;SDS011;73663;51.298;5.802;2023-12-04T16:57:48;19.55;;;9.35;;
83682;SDS011;73663;51.298;5.802;2023-12-04T17:02:56;16.77;;;8.23;;
83682;SDS011;73663;51.298;5.802;2023-12-04T17:07:57;18.58;;;10.18;;
83682;SDS011;73663;51.298;5.802;2023-12-04T17:12:58;15.88;;;8.77;;
83682;SDS011;73663;51.298;5.802;2023-12-04T17:17:59;19.25;;;8.57;;
83682;SDS011;73663;51.298;5.802;2023-12-04T17:22:59;18.48;;;8.55;;
83682;SDS011;73663;51.298;5.802;2023-12-04T17:28:00;17.05;;;7.57;;
83682;SDS011;73663;51.298;5.802;2023-12-04T17:33:01;15.23;;;8.20;;
83682;SDS011;73663;51.298;5.802;2023-12-04T17:38:01;17.05;;;8.02;;
83682;SDS011;73663;51.298;5.802;2023-12-04T17:43:02;16.10;;;8.05;;
83682;SDS011;73663;51.298;5.802;2023-12-04T17:48:09;19.58;;;8.68;;
83682;SDS011;73663;51.298;5.802;2023-12-04T17:53:09;20.52;;;8.73;;
83682;SDS011;73663;51.298;5.802;2023-12-04T17:58:10;17.88;;;8.88;;
83682;SDS011;73663;51.298;5.802;2023-12-04T18:03:20;17.00;;;7.93;;
83682;SDS011;73663;51.298;5.802;2023-12-04T18:08:20;14.68;;;8.35;;
83682;SDS011;73663;51.298;5.802;2023-12-04T18:13:21;18.50;;;9.38;;
83682;SDS011;73663;51.298;5.802;2023-12-04T18:18:22;17.98;;;9.02;;
83682;SDS011;73663;51.298;5.802;2023-12-04T18:23:23;16.40;;;8.25;;
83682;SDS011;73663;51.298;5.802;2023-12-04T18:28:24;16.67;;;7.90;;
83682;SDS011;73663;51.298;5.802;2023-12-04T18:33:25;17.70;;;8.18;;
83682;SDS011;73663;51.298;5.802;2023-12-04T18:38:31;19.45;;;8.90;;
83682;SDS011;73663;51.298;5.802;2023-12-04T18:43:36;16.10;;;8.27;;
83682;SDS011;73663;51.298;5.802;2023-12-04T18:48:37;21.00;;;9.55;;
83682;SDS011;73663;51.298;5.802;2023-12-04T18:53:40;19.70;;;9.75;;
83682;SDS011;73663;51.298;5.802;2023-12-04T18:58:41;16.15;;;8.15;;
83682;SDS011;73663;51.298;5.802;2023-12-04T19:03:48;18.50;;;10.05;;
83682;SDS011;73663;51.298;5.802;2023-12-04T19:08:48;18.00;;;9.07;;
83682;SDS011;73663;51.298;5.802;2023-12-04T19:13:49;19.23;;;8.88;;
83682;SDS011;73663;51.298;5.802;2023-12-04T19:18:50;20.67;;;9.57;;
83682;SDS011;73663;51.298;5.802;2023-12-04T19:23:51;22.50;;;10.00;;
83682;SDS011;73663;51.298;5.802;2023-12-04T19:28:51;22.27;;;12.13;;
83682;SDS011;73663;51.298;5.802;2023-12-04T19:33:52;19.27;;;10.10;;
83682;SDS011;73663;51.298;5.802;2023-12-04T19:38:52;20.23;;;9.55;;
83682;SDS011;73663;51.298;5.802;2023-12-04T19:43:53;17.90;;;9.20;;
83682;SDS011;73663;51.298;5.802;2023-12-04T19:48:53;19.13;;;9.18;;
83682;SDS011;73663;51.298;5.802;2023-12-04T19:53:54;19.70;;;9.90;;
83682;SDS011;73663;51.298;5.802;2023-12-04T19:58:55;19.33;;;8.80;;
83682;SDS011;73663;51.298;5.802;2023-12-04T20:03:55;19.75;;;9.30;;
83682;SDS011;73663;51.298;5.802;2023-12-04T20:08:57;20.05;;;9.88;;
83682;SDS011;73663;51.298;5.802;2023-12-04T20:13:58;18.77;;;9.15;;
83682;SDS011;73663;51.298;5.802;2023-12-04T20:18:59;20.70;;;9.65;;
83682;SDS011;73663;51.298;5.802;2023-12-04T20:24:00;16.95;;;9.20;;
83682;SDS011;73663;51.298;5.802;2023-12-04T20:29:01;17.77;;;8.60;;
83682;SDS011;73663;51.298;5.802;2023-12-04T20:34:01;22.05;;;12.65;;
83682;SDS011;73663;51.298;5.802;2023-12-04T20:39:02;18.15;;;9.77;;
83682;SDS011;73663;51.298;5.802;2023-12-04T20:44:03;20.65;;;11.48;;
83682;SDS011;73663;51.298;5.802;2023-12-04T20:49:05;20.20;;;10.45;;
83682;SDS011;73663;51.298;5.802;2023-12-04T20:54:05;22.42;;;11.20;;
83682;SDS011;73663;51.298;5.802;2023-12-04T20:59:06;21.73;;;11.38;;
83682;SDS011;73663;51.298;5.802;2023-12-04T21:04:06;17.55;;;9.65;;
83682;SDS011;73663;51.298;5.802;2023-12-04T21:09:08;17.73;;;9.48;;
83682;SDS011;73663;51.298;5.802;2023-12-04T21:14:08;16.85;;;9.57;;
83682;SDS011;73663;51.298;5.802;2023-12-04T21:19:09;26.38;;;10.13;;
83682;SDS011;73663;51.298;5.802;2023-12-04T21:24:09;23.48;;;10.63;;
83682;SDS011;73663;51.298;5.802;2023-12-04T21:29:10;23.38;;;10.30;;
83682;SDS011;73663;51.298;5.802;2023-12-04T21:34:10;18.30;;;8.98;;
83682;SDS011;73663;51.298;5.802;2023-12-04T21:39:11;19.60;;;9.15;;
83682;SDS011;73663;51.298;5.802;2023-12-04T21:44:13;18.67;;;8.82;;
83682;SDS011;73663;51.298;5.802;2023-12-04T21:49:13;19.30;;;8.68;;
83682;SDS011;73663;51.298;5.802;2023-12-04T21:54:14;18.30;;;9.15;;
83682;SDS011;73663;51.298;5.802;2023-12-04T21:59:14;19.67;;;9.38;;
83682;SDS011;73663;51.298;5.802;2023-12-04T22:04:15;19.00;;;9.10;;
83682;SDS011;73663;51.298;5.802;2023-12-04T22:09:16;19.73;;;10.02;;
83682;SDS011;73663;51.298;5.802;2023-12-04T22:14:16;19.23;;;8.82;;
83682;SDS011;73663;51.298;5.802;2023-12-04T22:19:17;22.95;;;9.70;;
83682;SDS011;73663;51.298;5.802;2023-12-04T22:24:24;19.92;;;9.27;;
83682;SDS011;73663;51.298;5.802;2023-12-04T22:29:24;26.27;;;11.02;;
83682;SDS011;73663;51.298;5.802;2023-12-04T22:34:25;19.70;;;9.73;;
83682;SDS011;73663;51.298;5.802;2023-12-04T22:39:25;24.15;;;9.90;;
83682;SDS011;73663;51.298;5.802;2023-12-04T22:44:26;23.50;;;10.00;;
83682;SDS011;73663;51.298;5.802;2023-12-04T22:49:26;18.65;;;8.77;;
83682;SDS011;73663;51.298;5.802;2023-12-04T22:54:27;20.58;;;9.63;;
83682;SDS011;73663;51.298;5.802;2023-12-04T22:59:27;18.30;;;9.68;;
83682;SDS011;73663;51.298;5.802;2023-12-04T23:04:28;21.98;;;9.52;;
83682;SDS011;73663;51.298;5.802;2023-12-04T23:09:29;21.58;;;9.43;;
83682;SDS011;73663;51.298;5.802;2023-12-04T23:14:30;18.58;;;9.40;;
83682;SDS011;73663;51.298;5.802;2023-12-04T23:19:30;21.83;;;9.70;;
83682;SDS011;73663;51.298;5.802;2023-12-04T23:24:31;19.95;;;9.40;;
83682;SDS011;73663;51.298;5.802;2023-12-04T23:29:32;19.38;;;9.65;;
83682;SDS011;73663;51.298;5.802;2023-12-04T23:34:33;21.73;;;9.55;;
83682;SDS011;73663;51.298;5.802;2023-12-04T23:39:34;19.85;;;9.05;;
83682;SDS011;73663;51.298;5.802;2023-12-04T23:44:42;20.77;;;9.35;;
83682;SDS011;73663;51.298;5.802;2023-12-04T23:49:42;19.48;;;9.25;;
83682;SDS011;73663;51.298;5.802;2023-12-04T23:54:43;20.27;;;9.65;;
83682;SDS011;73663;51.298;5.802;2023-12-04T23:59:43;19.45;;;8.98;;
